createdAt,value
2017-02-10T00:00:12.120Z,0
2017-02-10T00:01:16.245Z,0
2017-02-10T00:02:20.400Z,0
2017-02-10T00:03:25.520Z,0
2017-02-10T00:04:31.652Z,0
2017-02-10T00:05:37.747Z,0
2017-02-10T00:06:42.842Z,0
2017-02-10T00:07:47.947Z,0
2017-02-10T00:08:53.042Z,0
2017-02-10T00:09:58.181Z,0
2017-02-10T00:11:03.300Z,0
2017-02-10T00:12:08.490Z,0
2017-02-10T00:13:13.587Z,0
2017-02-10T00:14:19.681Z,0
2017-02-10T00:15:24.812Z,0
2017-02-10T00:16:30.906Z,0
2017-02-10T00:17:36.995Z,0
2017-02-10T00:18:41.123Z,0
2017-02-10T00:19:47.213Z,0
2017-02-10T00:20:51.361Z,0
2017-02-10T00:21:57.471Z,0
2017-02-10T00:23:02.600Z,0
2017-02-10T00:24:07.701Z,0
2017-02-10T00:25:12.857Z,0
2017-02-10T00:26:18.968Z,0
2017-02-10T00:27:25.031Z,0
2017-02-10T00:28:29.158Z,0
2017-02-10T00:29:35.244Z,0
2017-02-10T00:30:40.366Z,0
2017-02-10T00:31:45.486Z,0
2017-02-10T00:32:50.605Z,0
2017-02-10T00:33:56.687Z,0
2017-02-10T00:35:01.775Z,0
2017-02-10T00:36:06.902Z,0
2017-02-10T00:37:11.049Z,0
2017-02-10T00:38:17.139Z,0
2017-02-10T00:39:23.236Z,0
2017-02-10T00:40:28.338Z,0
2017-02-10T00:41:34.426Z,0
2017-02-10T00:42:40.525Z,0
2017-02-10T00:43:46.618Z,0
2017-02-10T00:44:51.732Z,0
2017-02-10T00:45:56.852Z,0
2017-02-10T00:47:01.976Z,0
2017-02-10T00:48:08.061Z,0
2017-02-10T00:49:13.180Z,0
2017-02-10T00:50:19.275Z,0
2017-02-10T00:51:24.415Z,0
2017-02-10T00:52:30.538Z,0
2017-02-10T00:53:33.700Z,0
2017-02-10T00:54:39.785Z,0
2017-02-10T00:55:44.936Z,0
2017-02-10T00:56:50.018Z,0
2017-02-10T00:57:55.135Z,0
2017-02-10T00:59:00.258Z,0
2017-02-10T01:00:05.391Z,0
2017-02-10T01:01:11.473Z,0
2017-02-10T01:02:17.651Z,0
2017-02-10T01:03:22.745Z,0
2017-02-10T01:04:28.890Z,0
2017-02-10T01:05:33.988Z,0
2017-02-10T01:06:40.090Z,0
2017-02-10T01:07:46.180Z,0
2017-02-10T01:08:52.267Z,0
2017-02-10T01:09:57.401Z,0
2017-02-10T01:11:02.526Z,0
2017-02-10T01:12:07.643Z,0
2017-02-10T01:13:13.755Z,0
2017-02-10T01:14:19.838Z,0
2017-02-10T01:15:24.921Z,0
2017-02-10T01:16:31.011Z,0
2017-02-10T01:17:37.106Z,0
2017-02-10T01:18:43.220Z,0
2017-02-10T01:19:49.318Z,0
2017-02-10T01:20:55.408Z,0
2017-02-10T01:22:00.531Z,0
2017-02-10T01:23:04.660Z,0
2017-02-10T01:24:08.838Z,0
2017-02-10T01:25:14.940Z,0
2017-02-10T01:26:20.033Z,0
2017-02-10T01:27:24.197Z,0
2017-02-10T01:28:30.354Z,0
2017-02-10T01:29:35.468Z,0
2017-02-10T01:30:39.625Z,0
2017-02-10T01:31:44.752Z,0
2017-02-10T01:32:48.924Z,0
2017-02-10T01:33:54.038Z,0
2017-02-10T01:35:00.129Z,0
2017-02-10T01:36:06.218Z,0
2017-02-10T01:37:11.376Z,0
2017-02-10T01:38:17.464Z,0
2017-02-10T01:39:22.581Z,0
2017-02-10T01:40:26.713Z,0
2017-02-10T01:41:31.832Z,0
2017-02-10T01:42:37.921Z,0
2017-02-10T01:43:43.047Z,0
2017-02-10T01:44:48.145Z,0
2017-02-10T01:45:54.233Z,0
2017-02-10T01:46:57.379Z,0
2017-02-10T01:48:02.470Z,0
2017-02-10T01:49:08.647Z,0
2017-02-10T01:50:10.857Z,0
2017-02-10T01:51:15.005Z,0
2017-02-10T01:52:21.120Z,0
2017-02-10T01:53:24.249Z,0
2017-02-10T01:54:29.449Z,0
2017-02-10T01:55:35.536Z,0
2017-02-10T01:56:40.699Z,0
2017-02-10T01:57:45.773Z,0
2017-02-10T01:58:48.962Z,0
2017-02-10T01:59:54.083Z,0
2017-02-10T02:00:59.198Z,0
2017-02-10T02:02:04.311Z,0
2017-02-10T02:03:09.412Z,0
2017-02-10T02:04:14.539Z,0
2017-02-10T02:05:19.712Z,0
2017-02-10T02:06:25.806Z,0
2017-02-10T02:07:31.895Z,0
2017-02-10T02:08:36.032Z,0
2017-02-10T02:09:42.119Z,0
2017-02-10T02:10:47.233Z,0
2017-02-10T02:11:53.330Z,0
2017-02-10T02:12:58.451Z,0
2017-02-10T02:14:03.570Z,0
2017-02-10T02:15:08.713Z,0
2017-02-10T02:16:14.799Z,0
2017-02-10T02:17:19.934Z,0
2017-02-10T02:18:26.007Z,0
2017-02-10T02:19:32.096Z,0
2017-02-10T02:20:37.255Z,0
2017-02-10T02:21:43.356Z,0
2017-02-10T02:22:49.439Z,0
2017-02-10T02:23:53.568Z,0
2017-02-10T02:24:59.720Z,0
2017-02-10T02:26:05.792Z,0
2017-02-10T02:27:11.884Z,0
2017-02-10T02:28:17.967Z,0
2017-02-10T02:29:23.090Z,0
2017-02-10T02:30:27.241Z,0
2017-02-10T02:31:32.367Z,0
2017-02-10T02:32:38.456Z,0
2017-02-10T02:33:43.633Z,0
2017-02-10T02:34:48.765Z,0
2017-02-10T02:35:53.887Z,0
2017-02-10T02:36:59.983Z,0
2017-02-10T02:38:06.075Z,0
2017-02-10T02:39:12.148Z,0
2017-02-10T02:40:17.274Z,0
2017-02-10T02:41:23.358Z,0
2017-02-10T02:42:29.447Z,0
2017-02-10T02:43:34.566Z,0
2017-02-10T02:44:40.655Z,0
2017-02-10T02:45:44.807Z,0
2017-02-10T02:46:50.921Z,0
2017-02-10T02:47:56.988Z,0
2017-02-10T02:49:01.127Z,0
2017-02-10T02:50:06.251Z,0
2017-02-10T02:51:10.493Z,0
2017-02-10T02:52:16.582Z,0
2017-02-10T02:53:21.711Z,0
2017-02-10T02:54:27.812Z,0
2017-02-10T02:55:33.901Z,0
2017-02-10T02:56:39.986Z,0
2017-02-10T02:57:45.163Z,0
2017-02-10T02:58:50.270Z,0
2017-02-10T02:59:56.379Z,0
2017-02-10T03:01:01.473Z,0
2017-02-10T03:02:06.567Z,0
2017-02-10T03:03:11.694Z,0
2017-02-10T03:04:17.793Z,0
2017-02-10T03:05:23.882Z,0
2017-02-10T03:06:29.007Z,0
2017-02-10T03:07:32.163Z,0
2017-02-10T03:08:37.249Z,0
2017-02-10T03:09:40.431Z,0
2017-02-10T03:10:46.518Z,0
2017-02-10T03:11:51.649Z,0
2017-02-10T03:12:57.857Z,0
2017-02-10T03:14:02.949Z,0
2017-02-10T03:15:08.071Z,0
2017-02-10T03:16:14.156Z,0
2017-02-10T03:17:20.333Z,0
2017-02-10T03:18:24.471Z,0
2017-02-10T03:19:30.553Z,0
2017-02-10T03:20:35.669Z,0
2017-02-10T03:21:39.799Z,0
2017-02-10T03:22:45.889Z,0
2017-02-10T03:23:51.970Z,0
2017-02-10T03:24:58.063Z,0
2017-02-10T03:26:03.192Z,0
2017-02-10T03:27:09.289Z,0
2017-02-10T03:28:15.376Z,0
2017-02-10T03:29:21.516Z,0
2017-02-10T03:30:26.649Z,0
2017-02-10T03:31:32.795Z,0
2017-02-10T03:32:37.922Z,0
2017-02-10T03:33:43.042Z,0
2017-02-10T03:34:48.162Z,0
2017-02-10T03:35:53.281Z,0
2017-02-10T03:36:58.396Z,0
2017-02-10T03:38:02.550Z,0
2017-02-10T03:39:08.638Z,0
2017-02-10T03:40:11.827Z,0
2017-02-10T03:41:15.944Z,0
2017-02-10T03:42:21.072Z,0
2017-02-10T03:43:26.229Z,0
2017-02-10T03:44:32.285Z,0
2017-02-10T03:45:38.371Z,0
2017-02-10T03:46:41.532Z,0
2017-02-10T03:47:45.700Z,0
2017-02-10T03:48:51.789Z,0
2017-02-10T03:49:56.909Z,0
2017-02-10T03:51:03.046Z,0
2017-02-10T03:52:08.166Z,0
2017-02-10T03:53:11.328Z,0
2017-02-10T03:54:17.421Z,0
2017-02-10T03:55:21.548Z,0
2017-02-10T03:56:27.632Z,0
2017-02-10T03:57:32.760Z,0
2017-02-10T03:58:37.901Z,0
2017-02-10T03:59:43.961Z,0
2017-02-10T04:00:49.122Z,0
2017-02-10T04:01:54.251Z,0
2017-02-10T04:03:00.341Z,0
2017-02-10T04:04:04.526Z,0
2017-02-10T04:05:09.660Z,0
2017-02-10T04:06:15.750Z,0
2017-02-10T04:07:21.839Z,0
2017-02-10T04:08:24.998Z,0
2017-02-10T04:09:31.093Z,0
2017-02-10T04:10:35.275Z,0
2017-02-10T04:11:40.371Z,0
2017-02-10T04:12:44.597Z,0
2017-02-10T04:13:49.720Z,0
2017-02-10T04:14:53.912Z,0
2017-02-10T04:16:00.001Z,0
2017-02-10T04:17:04.151Z,0
2017-02-10T04:18:09.282Z,0
2017-02-10T04:19:15.372Z,0
2017-02-10T04:20:21.452Z,0
2017-02-10T04:21:27.548Z,0
2017-02-10T04:22:32.679Z,0
2017-02-10T04:23:36.838Z,0
2017-02-10T04:24:41.952Z,0
2017-02-10T04:25:48.035Z,0
2017-02-10T04:26:52.162Z,0
2017-02-10T04:27:57.282Z,0
2017-02-10T04:29:03.394Z,0
2017-02-10T04:30:09.481Z,0
2017-02-10T04:31:14.577Z,0
2017-02-10T04:32:20.771Z,0
2017-02-10T04:33:26.849Z,0
2017-02-10T04:34:31.977Z,0
2017-02-10T04:35:37.114Z,0
2017-02-10T04:36:41.230Z,0
2017-02-10T04:37:47.315Z,0
2017-02-10T04:38:53.406Z,0
2017-02-10T04:39:59.494Z,0
2017-02-10T04:41:03.642Z,0
2017-02-10T04:42:08.759Z,0
2017-02-10T04:43:13.887Z,0
2017-02-10T04:44:19.979Z,0
2017-02-10T04:45:24.128Z,0
2017-02-10T04:46:27.349Z,0
2017-02-10T04:47:33.415Z,0
2017-02-10T04:48:38.569Z,0
2017-02-10T04:49:44.671Z,0
2017-02-10T04:50:50.744Z,0
2017-02-10T04:51:56.870Z,0
2017-02-10T04:53:02.004Z,0
2017-02-10T04:54:08.101Z,0
2017-02-10T04:55:12.226Z,0
2017-02-10T04:56:16.341Z,0
2017-02-10T04:57:21.450Z,0
2017-02-10T04:58:27.583Z,0
2017-02-10T04:59:32.680Z,0
2017-02-10T05:00:37.798Z,0
2017-02-10T05:01:43.917Z,0
2017-02-10T05:02:49.040Z,0
2017-02-10T05:03:53.164Z,0
2017-02-10T05:04:59.354Z,0
2017-02-10T05:06:05.443Z,0
2017-02-10T05:07:09.575Z,0
2017-02-10T05:08:15.665Z,0
2017-02-10T05:09:21.751Z,0
2017-02-10T05:10:27.840Z,0
2017-02-10T05:11:32.964Z,0
2017-02-10T05:12:37.143Z,0
2017-02-10T05:13:42.266Z,0
2017-02-10T05:14:48.346Z,0
2017-02-10T05:15:54.443Z,0
2017-02-10T05:17:00.529Z,0
2017-02-10T05:18:06.624Z,0
2017-02-10T05:19:11.742Z,0
2017-02-10T05:20:17.832Z,0
2017-02-10T05:21:23.931Z,0
2017-02-10T05:22:29.046Z,0
2017-02-10T05:23:35.130Z,0
2017-02-10T05:24:41.243Z,0
2017-02-10T05:25:46.338Z,0
2017-02-10T05:26:51.458Z,0
2017-02-10T05:27:57.556Z,0
2017-02-10T05:29:00.772Z,0
2017-02-10T05:30:05.917Z,0
2017-02-10T05:31:11.989Z,0
2017-02-10T05:32:17.133Z,0
2017-02-10T05:33:22.253Z,0
2017-02-10T05:34:27.345Z,0
2017-02-10T05:35:32.571Z,0
2017-02-10T05:36:36.730Z,0
2017-02-10T05:37:40.890Z,0
2017-02-10T05:38:46.028Z,0
2017-02-10T05:39:52.101Z,0
2017-02-10T05:40:57.211Z,0
2017-02-10T05:42:03.291Z,0
2017-02-10T05:43:09.378Z,0
2017-02-10T05:44:15.464Z,0
2017-02-10T05:45:18.618Z,0
2017-02-10T05:46:24.711Z,0
2017-02-10T05:47:30.797Z,0
2017-02-10T05:48:35.891Z,0
2017-02-10T05:49:41.021Z,0
2017-02-10T05:50:47.152Z,0
2017-02-10T05:51:50.315Z,0
2017-02-10T05:52:56.391Z,0
2017-02-10T05:54:02.479Z,0
2017-02-10T05:55:06.639Z,0
2017-02-10T05:56:12.725Z,0
2017-02-10T05:57:18.820Z,0
2017-02-10T05:58:24.907Z,0
2017-02-10T05:59:31.005Z,0
2017-02-10T06:00:37.107Z,0
2017-02-10T06:01:39.301Z,0
2017-02-10T06:02:42.473Z,0
2017-02-10T06:03:47.574Z,0
2017-02-10T06:04:52.693Z,0
2017-02-10T06:05:57.852Z,0
2017-02-10T06:07:02.970Z,0
2017-02-10T06:08:08.062Z,0
2017-02-10T06:09:11.252Z,0
2017-02-10T06:10:16.369Z,0
2017-02-10T06:11:21.495Z,0
2017-02-10T06:12:25.697Z,0
2017-02-10T06:13:28.876Z,0
2017-02-10T06:14:32.033Z,0
2017-02-10T06:15:38.134Z,0
2017-02-10T06:16:43.254Z,0
2017-02-10T06:17:49.357Z,0
2017-02-10T06:18:55.489Z,0
2017-02-10T06:20:00.584Z,0
2017-02-10T06:21:06.706Z,0
2017-02-10T06:22:12.796Z,0
2017-02-10T06:23:15.978Z,0
2017-02-10T06:24:22.077Z,0
2017-02-10T06:25:28.164Z,0
2017-02-10T06:26:33.286Z,0
2017-02-10T06:27:39.375Z,0
2017-02-10T06:28:45.465Z,4
2017-02-10T06:29:49.601Z,0
2017-02-10T06:30:53.744Z,0
2017-02-10T06:31:58.851Z,4
2017-02-10T06:33:04.939Z,0
2017-02-10T06:34:10.048Z,4
2017-02-10T06:35:15.214Z,4
2017-02-10T06:36:21.358Z,4
2017-02-10T06:37:27.449Z,4
2017-02-10T06:38:32.564Z,8
2017-02-10T06:39:37.688Z,4
2017-02-10T06:40:43.784Z,8
2017-02-10T06:41:49.883Z,8
2017-02-10T06:42:55.000Z,12
2017-02-10T06:44:01.085Z,12
2017-02-10T06:45:06.214Z,16
2017-02-10T06:46:11.340Z,20
2017-02-10T06:47:17.437Z,20
2017-02-10T06:48:22.560Z,28
2017-02-10T06:49:27.677Z,28
2017-02-10T06:50:33.766Z,32
2017-02-10T06:51:38.884Z,36
2017-02-10T06:52:44.008Z,36
2017-02-10T06:53:49.160Z,40
2017-02-10T06:54:55.244Z,44
2017-02-10T06:56:00.375Z,44
2017-02-10T06:57:06.464Z,56
2017-02-10T06:58:12.549Z,56
2017-02-10T06:59:18.635Z,56
2017-02-10T07:00:23.749Z,60
2017-02-10T07:01:28.868Z,72
2017-02-10T07:02:34.968Z,72
2017-02-10T07:03:41.058Z,72
2017-02-10T07:04:47.218Z,80
2017-02-10T07:05:51.366Z,96
2017-02-10T07:06:57.468Z,104
2017-02-10T07:08:03.572Z,112
2017-02-10T07:09:09.668Z,116
2017-02-10T07:10:15.735Z,124
2017-02-10T07:11:21.826Z,136
2017-02-10T07:12:26.941Z,160
2017-02-10T07:13:32.071Z,168
2017-02-10T07:14:36.233Z,176
2017-02-10T07:15:42.318Z,168
2017-02-10T07:16:48.416Z,160
2017-02-10T07:17:52.598Z,184
2017-02-10T07:18:58.685Z,224
2017-02-10T07:20:04.796Z,232
2017-02-10T07:21:10.865Z,232
2017-02-10T07:22:16.953Z,248
2017-02-10T07:23:23.044Z,272
2017-02-10T07:24:28.172Z,304
2017-02-10T07:25:33.295Z,296
2017-02-10T07:26:37.421Z,304
2017-02-10T07:27:42.543Z,332
2017-02-10T07:28:47.668Z,344
2017-02-10T07:29:53.838Z,364
2017-02-10T07:30:57.996Z,408
2017-02-10T07:32:03.118Z,428
2017-02-10T07:33:09.208Z,448
2017-02-10T07:34:14.306Z,476
2017-02-10T07:35:19.441Z,508
2017-02-10T07:36:24.589Z,520
2017-02-10T07:37:30.656Z,508
2017-02-10T07:38:35.805Z,500
2017-02-10T07:39:39.958Z,496
2017-02-10T07:40:44.081Z,516
2017-02-10T07:41:50.169Z,528
2017-02-10T07:42:55.291Z,552
2017-02-10T07:44:01.380Z,604
2017-02-10T07:45:06.504Z,612
2017-02-10T07:46:11.605Z,612
2017-02-10T07:47:17.755Z,644
2017-02-10T07:48:23.834Z,652
2017-02-10T07:49:28.956Z,656
2017-02-10T07:50:35.045Z,660
2017-02-10T07:51:40.169Z,684
2017-02-10T07:52:46.250Z,704
2017-02-10T07:53:49.437Z,728
2017-02-10T07:54:55.540Z,728
2017-02-10T07:56:00.660Z,744
2017-02-10T07:57:05.771Z,764
2017-02-10T07:58:10.859Z,784
2017-02-10T07:59:16.043Z,796
2017-02-10T08:00:21.136Z,800
2017-02-10T08:01:25.263Z,848
2017-02-10T08:02:31.347Z,884
2017-02-10T08:03:37.506Z,912
2017-02-10T08:04:42.635Z,972
2017-02-10T08:05:47.759Z,992
2017-02-10T08:06:52.872Z,992
2017-02-10T08:07:58.008Z,1012
2017-02-10T08:09:04.102Z,1012
2017-02-10T08:10:10.191Z,1040
2017-02-10T08:11:15.314Z,1096
2017-02-10T08:12:20.430Z,1064
2017-02-10T08:13:25.547Z,1076
2017-02-10T08:14:31.652Z,1252
2017-02-10T08:15:36.757Z,1296
2017-02-10T08:16:41.890Z,1344
2017-02-10T08:17:47.973Z,1424
2017-02-10T08:18:53.143Z,1444
2017-02-10T08:19:58.266Z,1408
2017-02-10T08:21:04.352Z,1456
2017-02-10T08:22:09.492Z,1436
2017-02-10T08:23:15.583Z,1472
2017-02-10T08:24:21.683Z,1348
2017-02-10T08:25:26.805Z,1300
2017-02-10T08:26:31.928Z,1228
2017-02-10T08:27:38.021Z,1236
2017-02-10T08:28:43.138Z,1272
2017-02-10T08:29:48.262Z,1348
2017-02-10T08:30:53.384Z,1372
2017-02-10T08:31:58.508Z,1448
2017-02-10T08:33:03.631Z,1528
2017-02-10T08:34:09.719Z,1544
2017-02-10T08:35:14.851Z,1468
2017-02-10T08:36:20.994Z,1464
2017-02-10T08:37:26.122Z,1404
2017-02-10T08:38:32.224Z,1424
2017-02-10T08:39:38.314Z,1352
2017-02-10T08:40:44.417Z,1328
2017-02-10T08:41:49.529Z,1460
2017-02-10T08:42:54.649Z,1536
2017-02-10T08:43:58.778Z,1636
2017-02-10T08:45:04.880Z,1688
2017-02-10T08:46:09.968Z,1636
2017-02-10T08:47:16.061Z,1640
2017-02-10T08:48:21.154Z,1728
2017-02-10T08:49:27.336Z,1756
2017-02-10T08:50:32.451Z,1716
2017-02-10T08:51:38.552Z,1720
2017-02-10T08:52:43.664Z,1772
2017-02-10T08:53:47.822Z,1732
2017-02-10T08:54:53.908Z,1608
2017-02-10T08:55:59.999Z,1636
2017-02-10T08:57:05.120Z,1692
2017-02-10T08:58:11.213Z,1752
2017-02-10T08:59:17.311Z,1640
2017-02-10T09:00:23.397Z,1568
2017-02-10T09:01:28.513Z,1604
2017-02-10T09:02:34.633Z,1604
2017-02-10T09:03:39.766Z,1592
2017-02-10T09:04:45.869Z,1768
2017-02-10T09:05:50.990Z,2004
2017-02-10T09:06:57.083Z,2224
2017-02-10T09:08:03.170Z,2344
2017-02-10T09:09:09.257Z,2344
2017-02-10T09:10:13.407Z,2400
2017-02-10T09:11:15.616Z,2444
2017-02-10T09:12:21.707Z,2360
2017-02-10T09:13:26.812Z,2448
2017-02-10T09:14:32.907Z,2304
2017-02-10T09:15:39.016Z,2096
2017-02-10T09:16:45.095Z,1912
2017-02-10T09:17:51.182Z,1784
2017-02-10T09:18:57.275Z,1780
2017-02-10T09:20:02.404Z,1788
2017-02-10T09:21:07.539Z,1544
2017-02-10T09:22:12.658Z,1612
2017-02-10T09:23:16.826Z,1696
2017-02-10T09:24:21.949Z,1760
2017-02-10T09:25:26.081Z,1672
2017-02-10T09:26:31.202Z,1676
2017-02-10T09:27:36.333Z,1820
2017-02-10T09:28:41.457Z,1972
2017-02-10T09:29:46.585Z,1932
2017-02-10T09:30:52.680Z,1808
2017-02-10T09:31:56.844Z,1852
2017-02-10T09:33:01.965Z,2092
2017-02-10T09:34:08.056Z,1920
2017-02-10T09:35:11.217Z,2008
2017-02-10T09:36:16.350Z,2044
2017-02-10T09:37:20.499Z,2048
2017-02-10T09:38:26.624Z,2452
2017-02-10T09:39:31.714Z,2516
2017-02-10T09:40:37.806Z,2548
2017-02-10T09:41:43.900Z,2292
2017-02-10T09:42:49.988Z,2356
2017-02-10T09:43:56.097Z,2516
2017-02-10T09:45:02.183Z,2228
2017-02-10T09:46:08.273Z,2036
2017-02-10T09:47:14.362Z,2228
2017-02-10T09:48:20.456Z,2456
2017-02-10T09:49:26.542Z,2528
2017-02-10T09:50:32.651Z,2388
2017-02-10T09:51:36.811Z,2132
2017-02-10T09:52:40.969Z,1864
2017-02-10T09:53:47.039Z,1928
2017-02-10T09:54:51.172Z,1960
2017-02-10T09:55:55.337Z,2004
2017-02-10T09:57:00.523Z,2376
2017-02-10T09:58:06.602Z,2568
2017-02-10T09:59:11.729Z,2652
2017-02-10T10:00:17.809Z,2596
2017-02-10T10:01:22.948Z,2588
2017-02-10T10:02:27.114Z,2336
2017-02-10T10:03:32.237Z,2196
2017-02-10T10:04:36.347Z,2332
2017-02-10T10:05:42.463Z,2380
2017-02-10T10:06:47.527Z,2240
2017-02-10T10:07:53.619Z,2176
2017-02-10T10:08:57.831Z,2240
2017-02-10T10:10:02.962Z,2212
2017-02-10T10:11:09.056Z,2052
2017-02-10T10:12:15.140Z,2168
2017-02-10T10:13:19.274Z,2220
2017-02-10T10:14:25.372Z,2108
2017-02-10T10:15:31.462Z,2172
2017-02-10T10:16:36.581Z,2224
2017-02-10T10:17:41.709Z,2396
2017-02-10T10:18:46.806Z,2276
2017-02-10T10:19:52.900Z,2200
2017-02-10T10:20:58.990Z,2096
2017-02-10T10:22:05.075Z,1968
2017-02-10T10:23:10.212Z,1820
2017-02-10T10:24:14.427Z,1796
2017-02-10T10:25:19.543Z,1932
2017-02-10T10:26:25.644Z,2096
2017-02-10T10:27:31.780Z,1976
2017-02-10T10:28:36.903Z,2012
2017-02-10T10:29:42.021Z,1956
2017-02-10T10:30:46.148Z,2152
2017-02-10T10:31:52.244Z,1896
2017-02-10T10:32:57.429Z,1876
2017-02-10T10:34:03.520Z,1956
2017-02-10T10:35:08.650Z,2020
2017-02-10T10:36:14.739Z,2312
2017-02-10T10:37:19.872Z,2352
2017-02-10T10:38:24.016Z,2564
2017-02-10T10:39:29.118Z,2600
2017-02-10T10:40:35.220Z,2564
2017-02-10T10:41:40.322Z,2576
2017-02-10T10:42:46.422Z,2448
2017-02-10T10:43:50.546Z,2484
2017-02-10T10:44:55.669Z,2452
2017-02-10T10:46:01.070Z,2412
2017-02-10T10:47:06.167Z,2416
2017-02-10T10:48:11.286Z,2456
2017-02-10T10:49:16.421Z,2600
2017-02-10T10:50:22.521Z,2744
2017-02-10T10:51:26.634Z,2876
2017-02-10T10:52:30.825Z,3016
2017-02-10T10:53:36.914Z,2928
2017-02-10T10:54:42.016Z,2840
2017-02-10T10:55:47.199Z,2864
2017-02-10T10:56:52.298Z,2852
2017-02-10T10:57:58.394Z,2836
2017-02-10T10:59:04.519Z,2780
2017-02-10T11:00:10.588Z,2680
2017-02-10T11:01:16.678Z,2592
2017-02-10T11:02:19.842Z,2584
2017-02-10T11:03:24.996Z,2572
2017-02-10T11:04:28.153Z,2408
2017-02-10T11:05:32.305Z,2408
2017-02-10T11:06:38.405Z,2536
2017-02-10T11:07:42.563Z,2568
2017-02-10T11:08:47.685Z,2508
2017-02-10T11:09:50.844Z,2488
2017-02-10T11:10:56.935Z,2444
2017-02-10T11:12:02.056Z,2404
2017-02-10T11:13:07.184Z,2412
2017-02-10T11:14:13.282Z,2480
2017-02-10T11:15:18.374Z,2548
2017-02-10T11:16:20.559Z,2560
2017-02-10T11:17:26.648Z,2560
2017-02-10T11:18:30.797Z,2592
2017-02-10T11:19:34.002Z,2656
2017-02-10T11:20:40.054Z,2808
2017-02-10T11:21:45.186Z,2956
2017-02-10T11:22:50.315Z,2964
2017-02-10T11:23:55.417Z,2948
2017-02-10T11:24:59.540Z,2944
2017-02-10T11:26:05.667Z,2904
2017-02-10T11:27:10.767Z,2892
2017-02-10T11:28:16.874Z,2912
2017-02-10T11:29:22.065Z,2872
2017-02-10T11:30:28.158Z,2948
2017-02-10T11:31:33.303Z,3080
2017-02-10T11:32:39.378Z,3164
2017-02-10T11:33:45.478Z,3108
2017-02-10T11:34:51.569Z,3032
2017-02-10T11:35:56.668Z,3032
2017-02-10T11:37:02.754Z,3044
2017-02-10T11:38:08.846Z,2992
2017-02-10T11:39:12.012Z,2932
2017-02-10T11:40:18.105Z,2920
2017-02-10T11:41:24.191Z,2888
2017-02-10T11:42:29.333Z,2752
2017-02-10T11:43:33.490Z,2696
2017-02-10T11:44:39.580Z,2708
2017-02-10T11:45:43.774Z,2692
2017-02-10T11:46:48.875Z,2660
2017-02-10T11:47:54.961Z,2644
2017-02-10T11:49:01.068Z,2588
2017-02-10T11:50:06.191Z,2560
2017-02-10T11:51:11.319Z,2660
2017-02-10T11:52:16.434Z,2864
2017-02-10T11:53:21.563Z,2980
2017-02-10T11:54:26.694Z,2964
2017-02-10T11:55:31.802Z,2888
2017-02-10T11:56:37.940Z,2792
2017-02-10T11:57:44.029Z,2740
2017-02-10T11:58:50.126Z,2704
2017-02-10T11:59:55.251Z,2676
2017-02-10T12:01:00.370Z,2668
2017-02-10T12:02:05.465Z,2736
2017-02-10T12:03:10.592Z,2824
2017-02-10T12:04:16.689Z,2828
2017-02-10T12:05:22.824Z,2772
2017-02-10T12:06:28.943Z,2720
2017-02-10T12:07:35.034Z,2692
2017-02-10T12:08:40.180Z,2640
2017-02-10T12:09:46.291Z,2644
2017-02-10T12:10:52.392Z,2684
2017-02-10T12:11:57.523Z,2680
2017-02-10T12:13:03.644Z,2704
2017-02-10T12:14:07.789Z,2748
2017-02-10T12:15:13.886Z,2808
2017-02-10T12:16:19.018Z,2876
2017-02-10T12:17:24.137Z,2856
2017-02-10T12:18:30.226Z,2740
2017-02-10T12:19:35.357Z,2644
2017-02-10T12:20:39.533Z,2656
2017-02-10T12:21:43.632Z,2700
2017-02-10T12:22:49.721Z,2660
2017-02-10T12:23:55.813Z,2548
2017-02-10T12:25:01.909Z,2504
2017-02-10T12:26:07.016Z,2480
2017-02-10T12:27:13.104Z,2408
2017-02-10T12:28:19.215Z,2316
2017-02-10T12:29:24.329Z,2256
2017-02-10T12:30:30.415Z,2292
2017-02-10T12:31:35.547Z,2324
2017-02-10T12:32:40.677Z,2344
2017-02-10T12:33:46.760Z,2384
2017-02-10T12:34:52.843Z,2452
2017-02-10T12:35:58.933Z,2484
2017-02-10T12:37:04.054Z,2436
2017-02-10T12:38:10.151Z,2372
2017-02-10T12:39:16.240Z,2368
2017-02-10T12:40:20.404Z,2400
2017-02-10T12:41:26.509Z,2408
2017-02-10T12:42:31.629Z,2344
2017-02-10T12:43:37.715Z,2276
2017-02-10T12:44:42.842Z,2268
2017-02-10T12:45:48.932Z,2260
2017-02-10T12:46:55.028Z,2240
2017-02-10T12:48:01.173Z,2236
2017-02-10T12:49:06.280Z,2236
2017-02-10T12:50:10.407Z,2224
2017-02-10T12:51:15.538Z,2220
2017-02-10T12:52:21.635Z,2316
2017-02-10T12:53:27.725Z,2460
2017-02-10T12:54:31.866Z,2520
2017-02-10T12:55:35.058Z,2476
2017-02-10T12:56:41.151Z,2476
2017-02-10T12:57:45.309Z,2504
2017-02-10T12:58:50.428Z,2528
2017-02-10T12:59:54.578Z,2564
2017-02-10T13:00:58.737Z,2528
2017-02-10T13:02:04.840Z,2496
2017-02-10T13:03:09.970Z,2464
2017-02-10T13:04:16.062Z,2432
2017-02-10T13:05:21.208Z,2408
2017-02-10T13:06:27.289Z,2448
2017-02-10T13:07:32.413Z,2488
2017-02-10T13:08:37.505Z,2556
2017-02-10T13:09:41.633Z,2620
2017-02-10T13:10:47.718Z,2612
2017-02-10T13:11:52.851Z,2648
2017-02-10T13:12:58.936Z,2780
2017-02-10T13:14:05.082Z,2792
2017-02-10T13:15:11.171Z,2672
2017-02-10T13:16:16.287Z,2612
2017-02-10T13:17:21.431Z,2468
2017-02-10T13:18:26.492Z,2376
2017-02-10T13:19:32.625Z,2404
2017-02-10T13:20:38.714Z,2404
2017-02-10T13:21:44.810Z,2372
2017-02-10T13:22:50.919Z,2328
2017-02-10T13:23:56.069Z,2336
2017-02-10T13:25:00.201Z,2408
2017-02-10T13:26:06.304Z,2396
2017-02-10T13:27:12.395Z,2392
2017-02-10T13:28:18.495Z,2372
2017-02-10T13:29:24.585Z,2300
2017-02-10T13:30:29.768Z,2244
2017-02-10T13:31:35.858Z,2220
2017-02-10T13:32:40.952Z,2212
2017-02-10T13:33:46.084Z,2164
2017-02-10T13:34:52.182Z,2136
2017-02-10T13:35:58.272Z,2132
2017-02-10T13:37:03.404Z,2120
2017-02-10T13:38:09.495Z,2048
2017-02-10T13:39:14.618Z,2020
2017-02-10T13:40:18.776Z,1964
2017-02-10T13:41:24.870Z,1956
2017-02-10T13:42:29.961Z,2016
2017-02-10T13:43:35.098Z,2020
2017-02-10T13:44:41.193Z,1984
2017-02-10T13:45:45.360Z,1972
2017-02-10T13:46:50.489Z,1944
2017-02-10T13:47:54.614Z,1916
2017-02-10T13:48:59.715Z,1912
2017-02-10T13:50:05.816Z,1880
2017-02-10T13:51:11.900Z,1872
2017-02-10T13:52:16.085Z,1832
2017-02-10T13:53:21.199Z,1800
2017-02-10T13:54:25.359Z,1776
2017-02-10T13:55:31.447Z,1744
2017-02-10T13:56:36.580Z,1700
2017-02-10T13:57:41.706Z,1672
2017-02-10T13:58:47.804Z,1660
2017-02-10T13:59:53.893Z,1648
2017-02-10T14:00:59.167Z,1640
2017-02-10T14:02:02.324Z,1644
2017-02-10T14:03:08.415Z,1656
2017-02-10T14:04:13.544Z,1680
2017-02-10T14:05:19.651Z,1672
2017-02-10T14:06:24.770Z,1688
2017-02-10T14:07:28.936Z,1664
2017-02-10T14:08:34.210Z,1652
2017-02-10T14:09:40.279Z,1656
2017-02-10T14:10:45.407Z,1664
2017-02-10T14:11:50.547Z,1696
2017-02-10T14:12:55.636Z,1772
2017-02-10T14:14:00.768Z,1828
2017-02-10T14:15:05.882Z,1820
2017-02-10T14:16:11.984Z,1784
2017-02-10T14:17:18.068Z,1740
2017-02-10T14:18:24.157Z,1744
2017-02-10T14:19:30.247Z,1744
2017-02-10T14:20:35.369Z,1752
2017-02-10T14:21:41.472Z,1760
2017-02-10T14:22:47.571Z,1736
2017-02-10T14:23:52.693Z,1672
2017-02-10T14:24:57.816Z,1620
2017-02-10T14:26:01.977Z,1596
2017-02-10T14:27:07.100Z,1564
2017-02-10T14:28:13.190Z,1512
2017-02-10T14:29:18.281Z,1468
2017-02-10T14:30:23.401Z,1428
2017-02-10T14:31:27.653Z,1380
2017-02-10T14:32:32.874Z,1348
2017-02-10T14:33:38.996Z,1332
2017-02-10T14:34:44.114Z,1312
2017-02-10T14:35:50.244Z,1312
2017-02-10T14:37:10.384Z,1328
2017-02-10T14:38:16.492Z,1308
2017-02-10T14:39:22.619Z,1268
2017-02-10T14:40:27.758Z,1244
2017-02-10T14:41:33.033Z,1220
2017-02-10T14:42:36.242Z,1208
2017-02-10T14:43:42.343Z,1188
2017-02-10T14:44:48.436Z,1196
2017-02-10T14:45:54.514Z,1196
2017-02-10T14:47:00.755Z,1176
2017-02-10T14:48:06.865Z,1140
2017-02-10T14:49:12.943Z,1108
2017-02-10T14:50:19.038Z,1084
2017-02-10T14:51:25.142Z,1052
2017-02-10T14:52:31.231Z,1024
2017-02-10T14:53:36.349Z,1008
2017-02-10T14:54:42.437Z,984
2017-02-10T14:55:48.526Z,992
2017-02-10T14:56:54.678Z,1008
2017-02-10T14:57:59.758Z,1024
2017-02-10T14:59:04.897Z,1028
2017-02-10T15:00:10.981Z,1048
2017-02-10T15:01:16.094Z,1052
2017-02-10T15:02:22.199Z,1032
2017-02-10T15:03:27.334Z,992
2017-02-10T15:04:33.432Z,936
2017-02-10T15:05:38.557Z,912
2017-02-10T15:06:43.651Z,912
2017-02-10T15:07:47.805Z,904
2017-02-10T15:08:52.942Z,856
2017-02-10T15:09:59.018Z,816
2017-02-10T15:11:04.111Z,796
2017-02-10T15:12:10.314Z,784
2017-02-10T15:13:14.495Z,740
2017-02-10T15:14:18.645Z,680